createdAt,value
2016-11-25T00:00:09.062Z,988.81
2016-11-25T00:01:17.757Z,988.79
2016-11-25T00:02:26.451Z,988.79
2016-11-25T00:03:35.137Z,988.76
2016-11-25T00:04:43.832Z,988.81
2016-11-25T00:05:52.523Z,988.79
2016-11-25T00:07:01.212Z,988.82
2016-11-25T00:08:09.928Z,988.82
2016-11-25T00:09:18.620Z,988.86
2016-11-25T00:10:27.308Z,988.86
2016-11-25T00:11:36.000Z,988.82
2016-11-25T00:12:44.690Z,988.82
2016-11-25T00:13:53.388Z,988.85
2016-11-25T00:15:02.088Z,988.87
2016-11-25T00:16:10.775Z,988.85
2016-11-25T00:17:19.464Z,988.83
2016-11-25T00:18:28.156Z,988.84
2016-11-25T00:19:37.162Z,988.78
2016-11-25T00:20:45.854Z,988.76
2016-11-25T00:21:54.544Z,988.78
2016-11-25T00:23:03.232Z,988.76
2016-11-25T00:24:11.923Z,988.79
2016-11-25T00:25:20.617Z,988.77
2016-11-25T00:26:29.308Z,988.74
2016-11-25T00:27:37.996Z,988.73
2016-11-25T00:28:46.689Z,988.71
2016-11-25T00:29:55.386Z,988.68
2016-11-25T00:31:04.080Z,988.67
2016-11-25T00:32:12.780Z,988.63
2016-11-25T00:33:21.476Z,988.61
2016-11-25T00:34:30.165Z,988.58
2016-11-25T00:35:38.853Z,988.57
2016-11-25T00:36:47.538Z,988.57
2016-11-25T00:37:56.229Z,988.57
2016-11-25T00:39:04.921Z,988.55
2016-11-25T00:40:13.612Z,988.56
2016-11-25T00:41:22.301Z,988.56
2016-11-25T00:42:30.991Z,988.55
2016-11-25T00:43:39.680Z,988.59
2016-11-25T00:44:48.387Z,988.56
2016-11-25T00:45:57.076Z,988.56
2016-11-25T00:47:05.765Z,988.51
2016-11-25T00:48:14.454Z,988.55
2016-11-25T00:49:23.142Z,988.52
2016-11-25T00:50:31.830Z,988.51
2016-11-25T00:51:40.519Z,988.52
2016-11-25T00:52:49.209Z,988.48
2016-11-25T00:53:57.939Z,988.47
2016-11-25T00:55:06.626Z,988.46
2016-11-25T00:56:15.311Z,988.45
2016-11-25T00:57:24.005Z,988.45
2016-11-25T00:58:32.702Z,988.4
2016-11-25T00:59:41.394Z,988.37
2016-11-25T01:00:50.082Z,988.38
2016-11-25T01:01:58.806Z,988.42
2016-11-25T01:03:07.497Z,988.4
2016-11-25T01:04:16.189Z,988.41
2016-11-25T01:05:24.885Z,988.37
2016-11-25T01:06:33.575Z,988.38
2016-11-25T01:07:42.267Z,988.34
2016-11-25T01:08:50.955Z,988.34
2016-11-25T01:09:59.649Z,988.33
2016-11-25T01:11:08.344Z,988.32
2016-11-25T01:12:17.032Z,988.35
2016-11-25T01:13:25.729Z,988.29
2016-11-25T01:14:34.419Z,988.27
2016-11-25T01:15:43.107Z,988.28
2016-11-25T01:16:51.809Z,988.3
2016-11-25T01:18:00.507Z,988.28
2016-11-25T01:19:09.202Z,988.3
2016-11-25T01:20:17.906Z,988.29
2016-11-25T01:21:26.602Z,988.32
2016-11-25T01:22:35.296Z,988.27
2016-11-25T01:23:43.984Z,988.26
2016-11-25T01:24:52.679Z,988.26
2016-11-25T01:26:01.366Z,988.24
2016-11-25T01:27:10.059Z,988.22
2016-11-25T01:28:19.081Z,988.19
2016-11-25T01:29:27.773Z,988.15
2016-11-25T01:30:36.462Z,988.19
2016-11-25T01:31:45.155Z,988.12
2016-11-25T01:32:53.852Z,988.09
2016-11-25T01:34:02.586Z,988.09
2016-11-25T01:35:11.285Z,988.12
2016-11-25T01:36:19.984Z,988.08
2016-11-25T01:37:28.677Z,988.1
2016-11-25T01:38:37.368Z,988.09
2016-11-25T01:39:46.058Z,988.1
2016-11-25T01:40:54.751Z,988.1
2016-11-25T01:42:03.443Z,988.05
2016-11-25T01:43:12.138Z,988.02
2016-11-25T01:44:20.861Z,988.05
2016-11-25T01:45:29.549Z,987.95
2016-11-25T01:46:38.244Z,987.95
2016-11-25T01:47:46.933Z,987.91
2016-11-25T01:48:55.622Z,987.9
2016-11-25T01:50:04.628Z,987.86
2016-11-25T01:51:13.321Z,987.86
2016-11-25T01:52:22.017Z,987.85
2016-11-25T01:53:30.708Z,987.85
2016-11-25T01:54:39.396Z,987.85
2016-11-25T01:55:48.084Z,987.8
2016-11-25T01:56:56.779Z,987.7
2016-11-25T01:58:05.785Z,987.59
2016-11-25T01:59:14.478Z,987.57
2016-11-25T02:00:23.171Z,987.52
2016-11-25T02:01:31.863Z,987.49
2016-11-25T02:02:40.552Z,987.5
2016-11-25T02:03:49.243Z,987.57
2016-11-25T02:04:57.935Z,987.61
2016-11-25T02:06:06.631Z,987.59
2016-11-25T02:07:15.322Z,987.63
2016-11-25T02:08:24.011Z,987.56
2016-11-25T02:09:32.703Z,987.61
2016-11-25T02:10:41.394Z,987.58
2016-11-25T02:11:50.094Z,987.53
2016-11-25T02:12:58.788Z,987.53
2016-11-25T02:14:07.479Z,987.57
2016-11-25T02:15:16.171Z,987.53
2016-11-25T02:16:24.860Z,987.47
2016-11-25T02:17:33.547Z,987.47
2016-11-25T02:18:42.238Z,987.48
2016-11-25T02:19:50.966Z,987.4
2016-11-25T02:20:59.667Z,987.38
2016-11-25T02:22:08.364Z,987.38
2016-11-25T02:23:17.056Z,987.37
2016-11-25T02:24:25.749Z,987.35
2016-11-25T02:25:34.443Z,987.38
2016-11-25T02:26:43.131Z,987.37
2016-11-25T02:27:51.850Z,987.36
2016-11-25T02:29:00.542Z,987.38
2016-11-25T02:30:09.235Z,987.34
2016-11-25T02:31:17.923Z,987.3
2016-11-25T02:32:26.617Z,987.28
2016-11-25T02:33:35.636Z,987.32
2016-11-25T02:34:44.324Z,987.23
2016-11-25T02:35:53.015Z,987.24
2016-11-25T02:37:01.706Z,987.25
2016-11-25T02:38:10.394Z,987.25
2016-11-25T02:39:19.085Z,987.23
2016-11-25T02:40:27.775Z,987.22
2016-11-25T02:41:36.495Z,987.19
2016-11-25T02:42:45.507Z,987.12
2016-11-25T02:43:54.195Z,987.07
2016-11-25T02:45:02.889Z,986.97
2016-11-25T02:46:11.581Z,986.96
2016-11-25T02:47:20.297Z,987
2016-11-25T02:48:28.986Z,986.94
2016-11-25T02:49:37.681Z,986.91
2016-11-25T02:50:46.374Z,986.91
2016-11-25T02:51:55.075Z,986.88
2016-11-25T02:53:03.770Z,986.85
2016-11-25T02:54:12.458Z,986.83
2016-11-25T02:55:21.146Z,986.84
2016-11-25T02:56:29.841Z,986.78
2016-11-25T02:57:38.536Z,986.76
2016-11-25T02:58:47.225Z,986.7
2016-11-25T02:59:55.921Z,986.74
2016-11-25T03:01:04.613Z,986.69
2016-11-25T03:02:13.306Z,986.67
2016-11-25T03:03:22.030Z,986.62
2016-11-25T03:04:30.722Z,986.67
2016-11-25T03:05:39.411Z,986.61
2016-11-25T03:06:48.101Z,986.58
2016-11-25T03:07:56.794Z,986.56
2016-11-25T03:09:05.489Z,986.55
2016-11-25T03:10:14.184Z,986.54
2016-11-25T03:11:22.879Z,986.5
2016-11-25T03:12:31.570Z,986.4
2016-11-25T03:13:40.268Z,986.38
2016-11-25T03:14:48.961Z,986.37
2016-11-25T03:15:57.655Z,986.39
2016-11-25T03:17:06.348Z,986.37
2016-11-25T03:18:15.038Z,986.34
2016-11-25T03:19:23.732Z,986.35
2016-11-25T03:20:32.422Z,986.33
2016-11-25T03:21:41.113Z,986.32
2016-11-25T03:22:49.808Z,986.25
2016-11-25T03:23:58.501Z,986.29
2016-11-25T03:25:07.189Z,986.23
2016-11-25T03:26:15.875Z,986.24
2016-11-25T03:27:24.570Z,986.24
2016-11-25T03:28:33.286Z,986.28
2016-11-25T03:29:41.976Z,986.27
2016-11-25T03:30:50.663Z,986.19
2016-11-25T03:31:59.360Z,986.12
2016-11-25T03:33:08.050Z,986.1
2016-11-25T03:34:16.740Z,986.04
2016-11-25T03:35:25.442Z,986.05
2016-11-25T03:36:34.140Z,986.01
2016-11-25T03:37:42.841Z,985.98
2016-11-25T03:38:51.533Z,985.97
2016-11-25T03:40:00.225Z,986.02
2016-11-25T03:41:08.917Z,985.98
2016-11-25T03:42:17.615Z,986.05
2016-11-25T03:43:26.309Z,986.02
2016-11-25T03:44:35.004Z,986.06
2016-11-25T03:45:43.692Z,986.03
2016-11-25T03:46:52.389Z,985.97
2016-11-25T03:48:01.084Z,985.87
2016-11-25T03:49:09.777Z,985.86
2016-11-25T03:50:18.470Z,985.81
2016-11-25T03:51:27.161Z,985.8
2016-11-25T03:52:35.852Z,985.78
2016-11-25T03:53:44.543Z,985.83
2016-11-25T03:54:53.240Z,985.82
2016-11-25T03:56:01.931Z,985.76
2016-11-25T03:57:10.620Z,985.79
2016-11-25T03:58:19.312Z,985.77
2016-11-25T03:59:28.009Z,985.8
2016-11-25T04:00:36.754Z,985.76
2016-11-25T04:01:45.449Z,985.67
2016-11-25T04:02:54.453Z,985.67
2016-11-25T04:04:03.137Z,985.67
2016-11-25T04:05:11.835Z,985.64
2016-11-25T04:06:20.531Z,985.61
2016-11-25T04:07:29.223Z,985.51
2016-11-25T04:08:37.918Z,985.47
2016-11-25T04:09:46.615Z,985.5
2016-11-25T04:10:55.312Z,985.47
2016-11-25T04:12:04.001Z,985.47
2016-11-25T04:13:12.697Z,985.42
2016-11-25T04:14:21.389Z,985.43
2016-11-25T04:15:30.081Z,985.42
2016-11-25T04:16:38.777Z,985.33
2016-11-25T04:17:47.471Z,985.38
2016-11-25T04:18:56.170Z,985.39
2016-11-25T04:20:04.867Z,985.42
2016-11-25T04:21:13.558Z,985.4
2016-11-25T04:22:22.249Z,985.39
2016-11-25T04:23:30.939Z,985.34
2016-11-25T04:24:39.659Z,985.32
2016-11-25T04:25:48.352Z,985.37
2016-11-25T04:26:57.044Z,985.3
2016-11-25T04:28:05.735Z,985.25
2016-11-25T04:29:14.453Z,985.28
2016-11-25T04:30:23.150Z,985.2
2016-11-25T04:31:31.842Z,985.24
2016-11-25T04:32:40.534Z,985.15
2016-11-25T04:33:49.230Z,985.11
2016-11-25T04:34:57.920Z,985.09
2016-11-25T04:36:06.613Z,985.15
2016-11-25T04:37:15.298Z,985.05
2016-11-25T04:38:23.990Z,985.08
2016-11-25T04:39:32.681Z,985.09
2016-11-25T04:40:41.369Z,985.03
2016-11-25T04:41:50.061Z,985.05
2016-11-25T04:42:58.752Z,985
2016-11-25T04:44:07.443Z,984.95
2016-11-25T04:45:16.138Z,984.94
2016-11-25T04:46:24.856Z,984.87
2016-11-25T04:47:33.583Z,984.87
2016-11-25T04:48:42.280Z,984.79
2016-11-25T04:49:50.975Z,984.77
2016-11-25T04:50:59.677Z,984.75
2016-11-25T04:52:08.375Z,984.73
2016-11-25T04:53:17.088Z,984.55
2016-11-25T04:54:25.774Z,984.6
2016-11-25T04:55:34.467Z,984.55
2016-11-25T04:56:43.188Z,984.53
2016-11-25T04:57:51.881Z,984.54
2016-11-25T04:59:00.575Z,984.45
2016-11-25T05:00:09.263Z,984.42
2016-11-25T05:01:17.956Z,984.38
2016-11-25T05:02:26.644Z,984.33
2016-11-25T05:03:35.338Z,984.29
2016-11-25T05:04:44.040Z,984.29
2016-11-25T05:05:52.731Z,984.29
2016-11-25T05:07:01.429Z,984.27
2016-11-25T05:08:10.120Z,984.22
2016-11-25T05:09:18.814Z,984.22
2016-11-25T05:10:27.513Z,984.2
2016-11-25T05:11:36.230Z,984.17
2016-11-25T05:12:44.956Z,984.08
2016-11-25T05:13:53.656Z,984.07
2016-11-25T05:15:02.354Z,984.06
2016-11-25T05:16:11.049Z,984.07
2016-11-25T05:17:19.746Z,984.07
2016-11-25T05:18:28.436Z,984.02
2016-11-25T05:19:37.126Z,983.98
2016-11-25T05:20:45.852Z,983.98
2016-11-25T05:21:54.577Z,984.02
2016-11-25T05:23:03.272Z,983.92
2016-11-25T05:24:11.963Z,983.91
2016-11-25T05:25:20.654Z,983.95
2016-11-25T05:26:29.360Z,983.91
2016-11-25T05:27:38.055Z,983.86
2016-11-25T05:28:46.753Z,983.79
2016-11-25T05:29:55.478Z,983.75
2016-11-25T05:31:04.167Z,983.78
2016-11-25T05:32:12.861Z,983.72
2016-11-25T05:33:21.881Z,983.66
2016-11-25T05:34:30.570Z,983.7
2016-11-25T05:35:39.302Z,983.67
2016-11-25T05:36:47.995Z,983.67
2016-11-25T05:37:56.683Z,983.58
2016-11-25T05:39:05.407Z,983.61
2016-11-25T05:40:14.103Z,983.59
2016-11-25T05:41:22.794Z,983.56
2016-11-25T05:42:31.487Z,983.57
2016-11-25T05:43:40.498Z,983.6
2016-11-25T05:44:49.195Z,983.5
2016-11-25T05:45:57.885Z,983.55
2016-11-25T05:47:06.575Z,983.62
2016-11-25T05:48:15.267Z,983.46
2016-11-25T05:49:23.956Z,983.52
2016-11-25T05:50:32.649Z,983.52
2016-11-25T05:51:41.351Z,983.49
2016-11-25T05:52:50.042Z,983.47
2016-11-25T05:53:58.736Z,983.44
2016-11-25T05:55:07.426Z,983.46
2016-11-25T05:56:16.114Z,983.41
2016-11-25T05:57:24.807Z,983.34
2016-11-25T05:58:33.501Z,983.34
2016-11-25T05:59:42.194Z,983.3
2016-11-25T06:00:50.988Z,983.32
2016-11-25T06:01:59.684Z,983.33
2016-11-25T06:03:08.380Z,983.35
2016-11-25T06:04:17.076Z,983.33
2016-11-25T06:05:25.762Z,983.32
2016-11-25T06:06:34.462Z,983.33
2016-11-25T06:07:43.186Z,983.27
2016-11-25T06:08:51.877Z,983.34
2016-11-25T06:10:00.568Z,983.36
2016-11-25T06:11:09.266Z,983.32
2016-11-25T06:12:17.962Z,983.21
2016-11-25T06:13:26.651Z,983.26
2016-11-25T06:14:35.349Z,983.25
2016-11-25T06:15:44.041Z,983.3
2016-11-25T06:16:52.732Z,983.31
2016-11-25T06:18:01.425Z,983.26
2016-11-25T06:19:10.116Z,983.25
2016-11-25T06:20:18.806Z,983.18
2016-11-25T06:21:27.500Z,983.16
2016-11-25T06:22:36.200Z,983.12
2016-11-25T06:23:44.894Z,983.08
2016-11-25T06:24:53.588Z,982.97
2016-11-25T06:26:02.289Z,983
2016-11-25T06:27:10.975Z,982.98
2016-11-25T06:28:19.679Z,982.96
2016-11-25T06:29:28.371Z,982.96
2016-11-25T06:30:37.065Z,983
2016-11-25T06:31:45.763Z,982.91
2016-11-25T06:32:54.774Z,982.84
2016-11-25T06:34:03.460Z,982.8
2016-11-25T06:35:12.167Z,982.67
2016-11-25T06:36:20.860Z,982.73
2016-11-25T06:37:29.559Z,982.71
2016-11-25T06:38:38.254Z,982.73
2016-11-25T06:39:46.956Z,982.71
2016-11-25T06:40:55.651Z,982.65
2016-11-25T06:42:04.342Z,982.6
2016-11-25T06:43:13.064Z,982.58
2016-11-25T06:44:21.756Z,982.63
2016-11-25T06:45:30.451Z,982.58
2016-11-25T06:46:39.144Z,982.55
2016-11-25T06:47:47.839Z,982.55
2016-11-25T06:48:56.570Z,982.54
2016-11-25T06:50:05.263Z,982.55
2016-11-25T06:51:13.974Z,982.52
2016-11-25T06:52:22.692Z,982.52
2016-11-25T06:53:31.384Z,982.53
2016-11-25T06:54:40.073Z,982.54
2016-11-25T06:55:48.772Z,982.49
2016-11-25T06:56:57.464Z,982.52
2016-11-25T06:58:06.193Z,982.49
2016-11-25T06:59:14.881Z,982.47
2016-11-25T07:00:23.577Z,982.39
2016-11-25T07:01:32.268Z,982.31
2016-11-25T07:02:40.965Z,982.32
2016-11-25T07:03:49.654Z,982.32
2016-11-25T07:04:58.372Z,982.35
2016-11-25T07:06:07.067Z,982.36
2016-11-25T07:07:15.761Z,982.34
2016-11-25T07:08:24.452Z,982.28
2016-11-25T07:09:33.151Z,982.24
2016-11-25T07:10:41.845Z,982.17
2016-11-25T07:11:50.544Z,982.22
2016-11-25T07:12:59.235Z,982.32
2016-11-25T07:14:07.931Z,982.34
2016-11-25T07:15:16.621Z,982.26
2016-11-25T07:16:25.315Z,982.23
2016-11-25T07:17:34.006Z,982.26
2016-11-25T07:18:42.696Z,982.19
2016-11-25T07:19:51.395Z,982.26
2016-11-25T07:21:00.083Z,982.33
2016-11-25T07:22:08.780Z,982.36
2016-11-25T07:23:17.475Z,982.31
2016-11-25T07:24:26.172Z,982.39
2016-11-25T07:25:34.865Z,982.32
2016-11-25T07:26:43.558Z,982.25
2016-11-25T07:27:52.250Z,982.18
2016-11-25T07:29:00.943Z,982.26
2016-11-25T07:30:09.635Z,982.24
2016-11-25T07:31:18.325Z,982.2
2016-11-25T07:32:27.020Z,982.24
2016-11-25T07:33:35.715Z,982.28
2016-11-25T07:34:44.411Z,982.31
2016-11-25T07:35:53.137Z,982.33
2016-11-25T07:37:01.825Z,982.31
2016-11-25T07:38:10.526Z,982.37
2016-11-25T07:39:19.216Z,982.39
2016-11-25T07:40:27.907Z,982.34
2016-11-25T07:41:36.604Z,982.33
2016-11-25T07:42:45.301Z,982.3
2016-11-25T07:43:53.996Z,982.21
2016-11-25T07:45:02.691Z,982.22
2016-11-25T07:46:11.384Z,982.25
2016-11-25T07:47:20.083Z,982.24
2016-11-25T07:48:28.771Z,982.31
2016-11-25T07:49:37.465Z,982.27
2016-11-25T07:50:46.177Z,982.33
2016-11-25T07:51:54.864Z,982.26
2016-11-25T07:53:03.561Z,982.2
2016-11-25T07:54:12.279Z,982.17
2016-11-25T07:55:21.323Z,982.22
2016-11-25T07:56:30.041Z,982.25
2016-11-25T07:57:38.735Z,982.29
2016-11-25T07:58:47.428Z,982.23
2016-11-25T07:59:56.122Z,982.27
2016-11-25T08:01:04.822Z,982.2
2016-11-25T08:02:13.516Z,982.26
2016-11-25T08:03:22.208Z,982.21
2016-11-25T08:04:30.902Z,982.26
2016-11-25T08:05:39.594Z,982.29
2016-11-25T08:06:48.282Z,982.24
2016-11-25T08:07:56.981Z,982.25
2016-11-25T08:09:05.986Z,982.16
2016-11-25T08:10:14.678Z,982.09
2016-11-25T08:11:23.371Z,981.93
2016-11-25T08:12:32.069Z,981.81
2016-11-25T08:13:40.766Z,981.84
2016-11-25T08:14:49.459Z,981.84
2016-11-25T08:15:58.149Z,981.85
2016-11-25T08:17:06.847Z,981.93
2016-11-25T08:18:15.540Z,981.98
2016-11-25T08:19:24.233Z,981.94
2016-11-25T08:20:32.924Z,981.92
2016-11-25T08:21:41.616Z,982.03
2016-11-25T08:22:50.316Z,982.09
2016-11-25T08:23:59.055Z,982.05
2016-11-25T08:25:07.750Z,982.02
2016-11-25T08:26:16.452Z,981.89
2016-11-25T08:27:25.149Z,981.87
2016-11-25T08:28:33.844Z,981.92
2016-11-25T08:29:42.558Z,981.93
2016-11-25T08:30:51.287Z,981.89
2016-11-25T08:31:59.980Z,981.74
2016-11-25T08:33:08.667Z,981.67
2016-11-25T08:34:17.362Z,981.75
2016-11-25T08:35:26.068Z,981.74
2016-11-25T08:36:35.080Z,981.74
2016-11-25T08:37:43.773Z,981.68
2016-11-25T08:38:52.462Z,981.66
2016-11-25T08:40:01.163Z,981.66
2016-11-25T08:41:09.861Z,981.74
2016-11-25T08:42:18.553Z,981.73
2016-11-25T08:43:27.244Z,981.73
2016-11-25T08:44:35.933Z,981.8
2016-11-25T08:45:44.634Z,981.8
2016-11-25T08:46:53.332Z,981.92
2016-11-25T08:48:02.026Z,981.93
2016-11-25T08:49:10.719Z,981.82
2016-11-25T08:50:19.722Z,981.88
2016-11-25T08:51:28.416Z,981.88
2016-11-25T08:52:37.113Z,981.88
2016-11-25T08:53:45.810Z,981.87
2016-11-25T08:54:54.505Z,981.8
2016-11-25T08:56:03.194Z,981.8
2016-11-25T08:57:36.236Z,981.78
2016-11-25T08:58:46.843Z,981.79
2016-11-25T08:59:55.858Z,981.72
2016-11-25T09:01:04.575Z,981.72
2016-11-25T09:02:13.266Z,981.86
2016-11-25T09:04:42.321Z,981.77
2016-11-25T09:05:51.019Z,981.82
2016-11-25T09:06:59.717Z,981.83
2016-11-25T09:08:08.411Z,981.84
2016-11-25T09:09:17.257Z,981.73
2016-11-25T09:10:25.951Z,981.58
2016-11-25T09:11:34.641Z,981.59
2016-11-25T09:12:43.330Z,981.39
2016-11-25T09:13:52.026Z,981.46
2016-11-25T09:15:00.723Z,981.58
2016-11-25T09:16:09.419Z,981.65
2016-11-25T09:17:18.104Z,981.71
2016-11-25T09:18:26.794Z,981.79
2016-11-25T09:19:35.482Z,981.68
2016-11-25T09:20:44.178Z,981.72
2016-11-25T09:21:53.199Z,981.61
2016-11-25T09:23:01.892Z,981.67
2016-11-25T09:24:10.907Z,981.8
2016-11-25T09:25:19.597Z,981.8
2016-11-25T09:26:28.314Z,981.8
2016-11-25T09:27:37.007Z,981.71
2016-11-25T09:28:45.715Z,981.8
2016-11-25T09:29:54.411Z,981.91
2016-11-25T09:31:03.417Z,981.86
2016-11-25T09:32:12.123Z,982.01
2016-11-25T09:33:20.817Z,982.04
2016-11-25T09:34:29.509Z,982.06
2016-11-25T09:35:38.204Z,982.04
2016-11-25T09:36:46.895Z,982.03
2016-11-25T09:37:55.584Z,982.07
2016-11-25T09:39:04.278Z,981.99
2016-11-25T09:40:12.976Z,981.99
2016-11-25T09:41:21.666Z,982.03
2016-11-25T09:42:30.358Z,982.04
2016-11-25T09:43:39.057Z,982.08
2016-11-25T09:44:47.748Z,982.03
2016-11-25T09:45:56.441Z,982.11
2016-11-25T09:47:05.138Z,982.08
2016-11-25T09:48:13.832Z,982.12
2016-11-25T09:49:22.531Z,982.19
2016-11-25T09:50:31.222Z,982.23
2016-11-25T09:51:39.913Z,982.14
2016-11-25T09:52:48.611Z,982.15
2016-11-25T09:53:57.299Z,982.14
2016-11-25T09:55:05.992Z,982.12
2016-11-25T09:56:14.688Z,982.06
2016-11-25T09:57:23.379Z,982.05
2016-11-25T09:58:32.068Z,982.14
2016-11-25T09:59:40.767Z,982.11
2016-11-25T10:00:49.463Z,981.97
2016-11-25T10:01:58.160Z,981.94
2016-11-25T10:03:06.888Z,981.88
2016-11-25T10:04:15.581Z,981.86
2016-11-25T10:05:24.270Z,981.93
2016-11-25T10:06:32.958Z,981.99
2016-11-25T10:07:41.655Z,982.13
2016-11-25T10:08:50.357Z,982.08
2016-11-25T10:09:59.047Z,982.03
2016-11-25T10:11:07.743Z,982.03
2016-11-25T10:12:16.432Z,982.01
2016-11-25T10:13:25.122Z,982.02
2016-11-25T10:14:33.815Z,982.03
2016-11-25T10:15:42.507Z,982.05
2016-11-25T10:16:51.199Z,982.05
2016-11-25T10:17:59.890Z,982.11
2016-11-25T10:19:08.588Z,982.09
2016-11-25T10:20:17.283Z,982.03
2016-11-25T10:21:25.970Z,981.93
2016-11-25T10:22:34.660Z,981.97
2016-11-25T10:23:43.354Z,981.94
2016-11-25T10:24:52.045Z,981.9
2016-11-25T10:26:00.747Z,981.84
2016-11-25T10:27:09.445Z,981.84
2016-11-25T10:28:18.139Z,981.86
2016-11-25T10:29:26.832Z,981.82
2016-11-25T10:30:35.522Z,981.83
2016-11-25T10:31:44.219Z,981.85
2016-11-25T10:32:52.913Z,981.85
2016-11-25T10:34:01.609Z,981.86
2016-11-25T10:35:10.305Z,981.77
2016-11-25T10:36:19.311Z,981.76
2016-11-25T10:37:28.001Z,981.83
2016-11-25T10:38:36.698Z,981.81
2016-11-25T10:39:45.397Z,981.76
2016-11-25T10:40:54.093Z,981.82
2016-11-25T10:42:02.788Z,981.82
2016-11-25T10:43:11.488Z,981.78
2016-11-25T10:44:20.184Z,981.84
2016-11-25T10:45:28.877Z,981.86
2016-11-25T10:46:37.576Z,981.89
2016-11-25T10:47:46.269Z,981.82
2016-11-25T10:48:54.965Z,981.84
2016-11-25T10:50:03.661Z,981.8
2016-11-25T10:51:12.353Z,981.83
2016-11-25T10:52:21.043Z,981.75
2016-11-25T10:53:29.737Z,981.75
2016-11-25T10:54:38.431Z,981.73
2016-11-25T10:55:47.447Z,981.75
2016-11-25T10:56:56.164Z,981.73
2016-11-25T10:58:04.858Z,981.71
2016-11-25T10:59:13.554Z,981.66
2016-11-25T11:00:22.578Z,981.69
2016-11-25T11:01:31.305Z,981.68
2016-11-25T11:02:39.995Z,981.61
2016-11-25T11:03:48.688Z,981.63
2016-11-25T11:04:57.392Z,981.61
2016-11-25T11:06:06.087Z,981.57
2016-11-25T11:07:14.777Z,981.61
2016-11-25T11:08:23.471Z,981.55
2016-11-25T11:09:32.167Z,981.54
2016-11-25T11:10:40.858Z,981.48
2016-11-25T11:11:49.551Z,981.47
2016-11-25T11:12:58.245Z,981.5
2016-11-25T11:14:07.258Z,981.5
2016-11-25T11:15:15.950Z,981.46
2016-11-25T11:16:24.648Z,981.47
2016-11-25T11:17:33.347Z,981.46
2016-11-25T11:18:42.041Z,981.45
2016-11-25T11:19:50.734Z,981.46
2016-11-25T11:20:59.428Z,981.38
2016-11-25T11:22:08.118Z,981.43
2016-11-25T11:23:16.824Z,981.48
2016-11-25T11:24:25.517Z,981.56
2016-11-25T11:25:34.214Z,981.59
2016-11-25T11:26:42.906Z,981.59
2016-11-25T11:27:51.600Z,981.56
2016-11-25T11:29:00.609Z,981.58
2016-11-25T11:30:09.302Z,981.59
2016-11-25T11:31:17.998Z,981.59
2016-11-25T11:32:26.696Z,981.66
2016-11-25T11:33:35.708Z,981.75
2016-11-25T11:34:44.417Z,981.72
2016-11-25T11:35:53.739Z,981.67
2016-11-25T11:37:02.438Z,981.73
2016-11-25T11:38:11.132Z,981.66
2016-11-25T11:39:19.829Z,981.64
2016-11-25T11:40:28.573Z,981.64
2016-11-25T11:41:37.271Z,981.61
2016-11-25T11:42:45.966Z,981.65
2016-11-25T11:43:54.656Z,981.68
2016-11-25T11:45:03.352Z,981.68
2016-11-25T11:46:12.048Z,981.69
2016-11-25T11:47:20.743Z,981.71
2016-11-25T11:48:29.432Z,981.66
2016-11-25T11:49:38.129Z,981.67
2016-11-25T11:50:46.827Z,981.68
2016-11-25T11:51:55.518Z,981.73
2016-11-25T11:53:04.214Z,981.74
2016-11-25T11:54:12.909Z,981.7
2016-11-25T11:55:21.604Z,981.74
2016-11-25T11:56:30.301Z,981.72
2016-11-25T11:57:38.992Z,981.69
2016-11-25T11:58:47.720Z,981.65
2016-11-25T11:59:56.423Z,981.69
2016-11-25T12:01:05.117Z,981.7
2016-11-25T12:02:13.811Z,981.73
2016-11-25T12:03:22.508Z,981.71
2016-11-25T12:04:31.200Z,981.69
2016-11-25T12:05:39.896Z,981.71
2016-11-25T12:06:48.593Z,981.77
2016-11-25T12:07:57.323Z,981.73
2016-11-25T12:09:06.017Z,981.71
2016-11-25T12:10:14.714Z,981.63
2016-11-25T12:11:23.406Z,981.6
2016-11-25T12:12:32.102Z,981.5
2016-11-25T12:13:40.793Z,981.51
2016-11-25T12:14:49.488Z,981.5
2016-11-25T12:15:58.178Z,981.45
2016-11-25T12:17:06.908Z,981.44
2016-11-25T12:18:15.603Z,981.44
2016-11-25T12:19:24.329Z,981.42
2016-11-25T12:20:33.026Z,981.47
2016-11-25T12:21:41.716Z,981.38
2016-11-25T12:22:50.421Z,981.33
2016-11-25T12:23:59.114Z,981.31
2016-11-25T12:25:07.814Z,981.31
2016-11-25T12:26:16.507Z,981.3
2016-11-25T12:27:25.195Z,981.32
2016-11-25T12:28:33.923Z,981.35
2016-11-25T12:29:42.720Z,981.28
2016-11-25T12:30:51.419Z,981.31
2016-11-25T12:32:00.142Z,981.37
2016-11-25T12:33:08.834Z,981.37
2016-11-25T12:34:17.540Z,981.35
2016-11-25T12:35:26.595Z,981.31
2016-11-25T12:36:35.290Z,981.26
2016-11-25T12:37:43.980Z,981.25
2016-11-25T12:38:52.685Z,981.24
2016-11-25T12:40:01.376Z,981.28
2016-11-25T12:41:10.072Z,981.3
2016-11-25T12:42:18.765Z,981.33
2016-11-25T12:43:27.458Z,981.38
2016-11-25T12:44:36.157Z,981.33
2016-11-25T12:45:44.846Z,981.34
2016-11-25T12:46:53.539Z,981.4
2016-11-25T12:48:02.234Z,981.42
2016-11-25T12:49:10.925Z,981.38
2016-11-25T12:50:19.631Z,981.42
2016-11-25T12:51:28.323Z,981.35
2016-11-25T12:52:37.011Z,981.33
2016-11-25T12:53:45.711Z,981.28
2016-11-25T12:54:54.404Z,981.25
2016-11-25T12:56:03.413Z,981.28
2016-11-25T12:57:12.108Z,981.23
2016-11-25T12:58:20.805Z,981.25
2016-11-25T12:59:29.498Z,981.16
2016-11-25T13:00:38.196Z,981.16
2016-11-25T13:01:46.885Z,981.2
2016-11-25T13:02:55.582Z,981.18
2016-11-25T13:04:04.273Z,981.25
2016-11-25T13:05:12.976Z,981.27
2016-11-25T13:06:21.665Z,981.23
2016-11-25T13:07:30.356Z,981.13
2016-11-25T13:08:39.052Z,981.16
2016-11-25T13:09:47.752Z,981.16
2016-11-25T13:10:56.452Z,981.13
2016-11-25T13:12:05.151Z,981.13
2016-11-25T13:13:13.877Z,981.08
2016-11-25T13:14:22.578Z,981.03
2016-11-25T13:15:31.276Z,980.99
2016-11-25T13:16:39.966Z,980.95
2016-11-25T13:17:48.698Z,980.89
2016-11-25T13:18:57.395Z,980.85
2016-11-25T13:20:06.091Z,980.8
2016-11-25T13:21:14.790Z,980.78
2016-11-25T13:22:23.485Z,980.66
2016-11-25T13:23:32.180Z,980.66
2016-11-25T13:24:40.870Z,980.67
2016-11-25T13:25:49.570Z,980.68
2016-11-25T13:26:58.264Z,980.72
2016-11-25T13:28:06.957Z,980.81
2016-11-25T13:29:15.676Z,980.76
2016-11-25T13:30:24.371Z,980.77
2016-11-25T13:31:33.072Z,980.8
2016-11-25T13:32:41.767Z,980.75
2016-11-25T13:33:50.493Z,980.78
2016-11-25T13:34:59.181Z,980.75
2016-11-25T13:36:07.879Z,980.77
2016-11-25T13:37:16.576Z,980.75
2016-11-25T13:38:25.275Z,980.67
2016-11-25T13:39:33.972Z,980.73
2016-11-25T13:40:42.673Z,980.72
2016-11-25T13:41:51.365Z,980.7
2016-11-25T13:43:00.071Z,980.66
2016-11-25T13:44:08.757Z,980.59
2016-11-25T13:45:17.461Z,980.63
2016-11-25T13:46:26.153Z,980.63
2016-11-25T13:47:34.847Z,980.64
2016-11-25T13:48:43.542Z,980.67
2016-11-25T13:49:52.237Z,980.63
2016-11-25T13:51:00.935Z,980.56
2016-11-25T13:52:09.951Z,980.51
2016-11-25T13:53:18.652Z,980.54
2016-11-25T13:54:27.378Z,980.59
2016-11-25T13:55:36.075Z,980.57
2016-11-25T13:56:44.771Z,980.63
2016-11-25T13:57:53.473Z,980.57
2016-11-25T13:59:02.172Z,980.6
2016-11-25T14:00:10.877Z,980.56
2016-11-25T14:01:19.610Z,980.48
2016-11-25T14:02:28.302Z,980.42
2016-11-25T14:03:37.312Z,980.46
2016-11-25T14:04:46.014Z,980.5
2016-11-25T14:05:54.720Z,980.46
2016-11-25T14:07:03.726Z,980.41
2016-11-25T14:08:12.424Z,980.43
2016-11-25T14:09:21.121Z,980.46
2016-11-25T14:10:29.816Z,980.46
2016-11-25T14:11:38.507Z,980.49
2016-11-25T14:12:47.210Z,980.46
2016-11-25T14:13:55.902Z,980.49
2016-11-25T14:15:04.601Z,980.44
2016-11-25T14:16:13.304Z,980.44
2016-11-25T14:17:21.998Z,980.35
2016-11-25T14:18:30.697Z,980.39
2016-11-25T14:19:39.710Z,980.34
2016-11-25T14:20:48.442Z,980.32